createdAt,value
2023-10-13T00:00:01.214Z,96181.69
2023-10-13T00:01:16.197Z,96190.16
2023-10-13T00:02:23.263Z,96187.09
2023-10-13T00:03:34.150Z,96186.88
2023-10-13T00:04:37.450Z,96185.91
2023-10-13T00:05:43.765Z,96183.06
2023-10-13T00:06:49.599Z,96180.47
2023-10-13T00:07:55.344Z,96183.13
2023-10-13T00:08:57.811Z,96184.59
2023-10-13T00:10:06.568Z,96179.72
2023-10-13T00:11:17.508Z,96179.16
2023-10-13T00:12:25.405Z,96175.84
2023-10-13T00:13:30.168Z,96182.03
2023-10-13T00:14:35.662Z,96167.88
2023-10-13T00:15:46.602Z,96179.41
2023-10-13T00:17:04.732Z,96177.97
2023-10-13T00:18:14.157Z,96179.16
2023-10-13T00:19:16.529Z,96181.19
2023-10-13T00:20:32.322Z,96177.00
2023-10-13T00:21:34.727Z,96184.84
2023-10-13T00:22:43.101Z,96174.59
2023-10-13T00:23:54.488Z,96181.38
2023-10-13T00:25:05.317Z,96183.53
2023-10-13T00:26:11.453Z,96177.66
2023-10-13T00:27:31.534Z,96177.28
2023-10-13T00:28:37.354Z,96171.69
2023-10-13T00:29:45.298Z,96172.84
2023-10-13T00:30:52.207Z,96174.03
2023-10-13T00:32:28.697Z,96168.78
2023-10-13T00:33:33.732Z,96162.09
2023-10-13T00:34:39.482Z,96170.91
2023-10-13T00:35:46.286Z,96165.44
2023-10-13T00:37:12.924Z,96160.44
2023-10-13T00:38:18.483Z,96166.50
2023-10-13T00:39:24.845Z,96167.44
2023-10-13T00:40:42.670Z,96165.44
2023-10-13T00:42:00.048Z,96162.09
2023-10-13T00:43:25.778Z,96167.31
2023-10-13T00:44:30.554Z,96163.06
2023-10-13T00:45:42.476Z,96165.44
2023-10-13T00:46:47.354Z,96154.50
2023-10-13T00:47:51.268Z,96153.47
2023-10-13T00:48:57.416Z,96159.22
2023-10-13T00:50:00.364Z,96146.78
2023-10-13T00:51:04.677Z,96154.75
2023-10-13T00:52:11.697Z,96147.00
2023-10-13T00:53:14.138Z,96164.03
2023-10-13T00:54:28.516Z,96149.88
2023-10-13T00:55:35.312Z,96158.09
2023-10-13T00:56:42.417Z,96156.47
2023-10-13T00:57:48.407Z,96163.25
2023-10-13T00:58:53.151Z,96154.91
2023-10-13T01:00:00.956Z,96166.94
2023-10-13T01:01:19.323Z,96170.16
2023-10-13T01:02:39.713Z,96164.00
2023-10-13T01:03:45.462Z,96154.97
2023-10-13T01:04:48.595Z,96162.31
2023-10-13T01:06:00.465Z,96160.03
2023-10-13T01:07:06.249Z,96167.28
2023-10-13T01:08:13.092Z,96163.38
2023-10-13T01:09:17.934Z,96159.41
2023-10-13T01:10:28.256Z,96157.50
2023-10-13T01:11:33.522Z,96159.03
2023-10-13T01:12:36.171Z,96161.41
2023-10-13T01:13:39.127Z,96159.16
2023-10-13T01:14:45.953Z,96155.13
2023-10-13T01:15:48.497Z,96153.22
2023-10-13T01:16:54.172Z,96154.88
2023-10-13T01:18:07.449Z,96146.53
2023-10-13T01:19:14.044Z,96149.66
2023-10-13T01:20:23.270Z,96153.47
2023-10-13T01:21:29.129Z,96160.50
2023-10-13T01:22:34.722Z,96153.50
2023-10-13T01:23:46.569Z,96154.41
2023-10-13T01:24:50.445Z,96150.00
2023-10-13T01:25:57.434Z,96152.44
2023-10-13T01:27:08.824Z,96155.69
2023-10-13T01:28:11.518Z,96148.09
2023-10-13T01:29:29.972Z,96148.09
2023-10-13T01:30:35.922Z,96138.09
2023-10-13T01:31:39.066Z,96146.06
2023-10-13T01:32:47.169Z,96142.84
2023-10-13T01:33:55.963Z,96139.25
2023-10-13T01:35:19.739Z,96144.25
2023-10-13T01:36:23.615Z,96149.16
2023-10-13T01:37:28.702Z,96144.97
2023-10-13T01:38:34.986Z,96142.47
2023-10-13T01:39:39.978Z,96144.75
2023-10-13T01:40:53.020Z,96144.16
2023-10-13T01:41:57.441Z,96138.78
2023-10-13T01:43:00.091Z,96135.47
2023-10-13T01:44:05.871Z,96138.78
2023-10-13T01:45:09.121Z,96134.03
2023-10-13T01:46:12.473Z,96139.50
2023-10-13T01:47:36.377Z,96137.13
2023-10-13T01:48:41.392Z,96133.28
2023-10-13T01:49:45.202Z,96134.03
2023-10-13T01:50:57.622Z,96130.91
2023-10-13T01:52:04.794Z,96138.91
2023-10-13T01:53:13.585Z,96144.25
2023-10-13T01:54:19.494Z,96135.91
2023-10-13T01:55:24.967Z,96136.41
2023-10-13T01:56:31.625Z,96132.84
2023-10-13T01:57:37.332Z,96139.16
2023-10-13T01:58:44.523Z,96141.63
2023-10-13T01:59:50.270Z,96143.31
2023-10-13T02:00:58.204Z,96133.66
2023-10-13T02:02:02.825Z,96140.47
2023-10-13T02:03:06.486Z,96135.91
2023-10-13T02:04:12.586Z,96133.00
2023-10-13T02:05:17.796Z,96131.78
2023-10-13T02:06:25.640Z,96134.59
2023-10-13T02:07:31.547Z,96132.56
2023-10-13T02:08:41.643Z,96136.56
2023-10-13T02:09:44.715Z,96124.69
2023-10-13T02:10:50.191Z,96136.44
2023-10-13T02:11:56.268Z,96130.81
2023-10-13T02:12:58.842Z,96129.00
2023-10-13T02:14:02.038Z,96129.38
2023-10-13T02:15:06.604Z,96121.75
2023-10-13T02:16:13.547Z,96124.09
2023-10-13T02:17:18.090Z,96124.22
2023-10-13T02:18:22.667Z,96126.91
2023-10-13T02:19:31.478Z,96120.69
2023-10-13T02:20:43.718Z,96119.69
2023-10-13T02:21:46.815Z,96119.75
2023-10-13T02:22:53.313Z,96123.88
2023-10-13T02:24:01.616Z,96122.72
2023-10-13T02:25:07.652Z,96120.88
2023-10-13T02:26:17.034Z,96117.97
2023-10-13T02:27:19.492Z,96115.06
2023-10-13T02:28:23.752Z,96113.94
2023-10-13T02:29:30.576Z,96114.47
2023-10-13T02:30:34.577Z,96116.47
2023-10-13T02:31:37.877Z,96118.78
2023-10-13T02:32:48.707Z,96114.81
2023-10-13T02:33:51.057Z,96111.78
2023-10-13T02:34:53.651Z,96105.34
2023-10-13T02:35:58.629Z,96104.06
2023-10-13T02:37:01.323Z,96102.94
2023-10-13T02:38:12.108Z,96103.25
2023-10-13T02:39:15.740Z,96107.22
2023-10-13T02:40:24.930Z,96102.41
2023-10-13T02:41:30.445Z,96098.44
2023-10-13T02:42:33.212Z,96098.88
2023-10-13T02:43:37.086Z,96097.47
2023-10-13T02:44:46.243Z,96094.44
2023-10-13T02:45:59.705Z,96098.41
2023-10-13T02:47:02.187Z,96104.88
2023-10-13T02:48:12.203Z,96103.50
2023-10-13T02:49:21.464Z,96094.38
2023-10-13T02:50:26.183Z,96103.56
2023-10-13T02:51:33.464Z,96102.19
2023-10-13T02:52:43.087Z,96098.94
2023-10-13T02:53:50.025Z,96099.13
2023-10-13T02:54:53.131Z,96098.72
2023-10-13T02:55:57.448Z,96092.00
2023-10-13T02:57:06.730Z,96096.72
2023-10-13T02:58:10.412Z,96093.66
2023-10-13T02:59:13.884Z,96091.34
2023-10-13T03:00:24.658Z,96095.19
2023-10-13T03:01:30.586Z,96090.25
2023-10-13T03:02:33.850Z,96100.97
2023-10-13T03:03:36.763Z,96090.94
2023-10-13T03:04:42.142Z,96087.69
2023-10-13T03:05:44.980Z,96087.03
2023-10-13T03:06:49.179Z,96087.22
2023-10-13T03:07:54.218Z,96091.34
2023-10-13T03:08:58.533Z,96087.97
2023-10-13T03:10:02.265Z,96085.38
2023-10-13T03:11:06.856Z,96084.63
2023-10-13T03:12:14.746Z,96081.81
2023-10-13T03:13:17.456Z,96082.03
2023-10-13T03:14:28.322Z,96078.69
2023-10-13T03:15:37.484Z,96077.56
2023-10-13T03:16:41.563Z,96077.75
2023-10-13T03:17:45.627Z,96076.91
2023-10-13T03:18:58.672Z,96083.72
2023-10-13T03:20:02.380Z,96076.63
2023-10-13T03:21:04.827Z,96073.28
2023-10-13T03:22:17.632Z,96080.16
2023-10-13T03:23:20.034Z,96077.84
2023-10-13T03:24:34.981Z,96074.50
2023-10-13T03:25:44.338Z,96072.00
2023-10-13T03:26:53.800Z,96071.34
2023-10-13T03:28:08.634Z,96079.25
2023-10-13T03:29:22.264Z,96079.44
2023-10-13T03:30:32.025Z,96079.00
2023-10-13T03:31:38.964Z,96073.16
2023-10-13T03:32:47.186Z,96074.19
2023-10-13T03:33:50.509Z,96080.31
2023-10-13T03:35:09.003Z,96076.28
2023-10-13T03:36:11.313Z,96082.50
2023-10-13T03:37:19.641Z,96074.06
2023-10-13T03:38:29.006Z,96079.47
2023-10-13T03:39:32.566Z,96081.50
2023-10-13T03:40:37.983Z,96085.25
2023-10-13T03:41:47.012Z,96072.41
2023-10-13T03:43:01.923Z,96079.56
2023-10-13T03:44:15.862Z,96076.41
2023-10-13T03:45:20.343Z,96072.41
2023-10-13T03:46:28.270Z,96076.94
2023-10-13T03:47:34.189Z,96081.50
2023-10-13T03:48:54.030Z,96076.50
2023-10-13T03:50:17.445Z,96081.06
2023-10-13T03:51:23.471Z,96078.72
2023-10-13T03:52:28.590Z,96080.56
2023-10-13T03:53:38.381Z,96076.31
2023-10-13T03:54:42.300Z,96080.75
2023-10-13T03:55:49.783Z,96075.84
2023-10-13T03:56:54.648Z,96071.66
2023-10-13T03:58:02.061Z,96073.50
2023-10-13T03:59:11.192Z,96072.75
2023-10-13T04:00:25.293Z,96079.63
2023-10-13T04:01:47.257Z,96081.31
2023-10-13T04:03:05.256Z,96078.06
2023-10-13T04:04:14.004Z,96077.31
2023-10-13T04:05:37.419Z,96068.47
2023-10-13T04:06:53.380Z,96075.47
2023-10-13T04:08:16.454Z,96077.94
2023-10-13T04:09:35.133Z,96077.94
2023-10-13T04:11:02.971Z,96077.31
2023-10-13T04:12:22.216Z,96073.88
2023-10-13T04:13:54.547Z,96077.56
2023-10-13T04:15:20.386Z,96075.13
2023-10-13T04:16:52.245Z,96077.94
2023-10-13T04:17:55.022Z,96073.66
2023-10-13T04:19:09.806Z,96072.97
2023-10-13T04:20:15.733Z,96076.53
2023-10-13T04:21:38.314Z,96068.06
2023-10-13T04:22:57.777Z,96070.84
2023-10-13T04:24:27.111Z,96071.03
2023-10-13T04:25:37.104Z,96073.97
2023-10-13T04:27:00.103Z,96075.91
2023-10-13T04:28:18.046Z,96070.06
2023-10-13T04:29:47.500Z,96076.16
2023-10-13T04:31:01.486Z,96078.09
2023-10-13T04:32:15.081Z,96069.66
2023-10-13T04:33:37.762Z,96069.84
2023-10-13T04:34:41.296Z,96072.63
2023-10-13T04:35:49.487Z,96070.91
2023-10-13T04:36:58.854Z,96074.38
2023-10-13T04:38:02.977Z,96064.81
2023-10-13T04:39:11.360Z,96060.53
2023-10-13T04:40:14.102Z,96067.41
2023-10-13T04:41:24.223Z,96064.88
2023-10-13T04:42:41.308Z,96071.84
2023-10-13T04:43:57.348Z,96073.63
2023-10-13T04:45:17.518Z,96070.38
2023-10-13T04:46:37.437Z,96067.78
2023-10-13T04:47:58.534Z,96069.59
2023-10-13T04:49:12.121Z,96070.50
2023-10-13T04:50:24.293Z,96065.91
2023-10-13T04:51:51.317Z,96061.38
2023-10-13T04:53:14.960Z,96063.06
2023-10-13T04:54:27.611Z,96063.06
2023-10-13T04:55:50.228Z,96062.03
2023-10-13T04:57:17.817Z,96052.94
2023-10-13T04:58:47.506Z,96054.81
2023-10-13T05:00:33.494Z,96050.63
2023-10-13T05:02:13.548Z,96051.47
2023-10-13T05:03:42.451Z,96053.31
2023-10-13T05:04:59.891Z,96048.13
2023-10-13T05:06:17.334Z,96050.81
2023-10-13T05:07:34.684Z,96045.69
2023-10-13T05:08:52.291Z,96051.81
2023-10-13T05:10:09.798Z,96044.09
2023-10-13T05:11:27.028Z,96040.69
2023-10-13T05:14:15.133Z,96038.44
2023-10-13T05:15:32.711Z,96041.03
2023-10-13T05:17:04.914Z,96043.81
2023-10-13T05:18:22.534Z,96043.97
2023-10-13T05:19:40.144Z,96044.13
2023-10-13T05:20:57.426Z,96041.63
2023-10-13T05:22:14.934Z,96043.56
2023-10-13T05:23:32.336Z,96046.34
2023-10-13T05:24:49.714Z,96039.47
2023-10-13T05:26:06.980Z,96051.66
2023-10-13T05:27:24.597Z,96041.38
2023-10-13T05:28:41.985Z,96046.63
2023-10-13T05:30:11.561Z,96039.78
2023-10-13T05:31:29.017Z,96044.03
2023-10-13T05:32:49.387Z,96043.88
2023-10-13T05:34:06.752Z,96045.41
2023-10-13T05:35:24.334Z,96043.41
2023-10-13T05:36:41.625Z,96037.19
2023-10-13T05:37:59.045Z,96039.63
2023-10-13T05:39:16.550Z,96048.81
2023-10-13T05:40:34.134Z,96041.50
2023-10-13T05:41:51.484Z,96042.91
2023-10-13T05:43:09.044Z,96035.78
2023-10-13T05:44:26.636Z,96033.84
2023-10-13T05:46:04.125Z,96030.25
2023-10-13T05:47:23.189Z,96032.66
2023-10-13T05:48:44.034Z,96035.91
2023-10-13T05:49:54.941Z,96035.84
2023-10-13T05:51:16.725Z,96036.56
2023-10-13T05:52:47.713Z,96039.84
2023-10-13T05:54:05.423Z,96031.75
2023-10-13T05:55:23.199Z,96034.09
2023-10-13T05:56:40.646Z,96032.06
2023-10-13T05:57:58.391Z,96031.50
2023-10-13T05:59:16.076Z,96032.81
2023-10-13T06:00:33.809Z,96026.41
2023-10-13T06:01:51.493Z,96028.66
2023-10-13T06:03:09.069Z,96030.13
2023-10-13T06:04:29.554Z,96031.50
2023-10-13T06:05:47.591Z,96029.47
2023-10-13T06:07:05.146Z,96025.75
2023-10-13T06:08:22.867Z,96035.06
2023-10-13T06:09:40.517Z,96032.19
2023-10-13T06:10:58.654Z,96033.56
2023-10-13T06:12:16.047Z,96034.09
2023-10-13T06:13:33.512Z,96031.97
2023-10-13T06:14:50.912Z,96035.13
2023-10-13T06:16:08.509Z,96039.13
2023-10-13T06:17:26.028Z,96040.41
2023-10-13T06:18:43.633Z,96038.38
2023-10-13T06:20:03.778Z,96032.75
2023-10-13T06:21:21.471Z,96035.72
2023-10-13T06:22:38.876Z,96031.81
2023-10-13T06:23:56.574Z,96035.47
2023-10-13T06:25:16.205Z,96033.34
2023-10-13T06:26:33.670Z,96029.19
2023-10-13T06:27:57.235Z,96028.81
2023-10-13T06:29:02.754Z,96037.78
2023-10-13T06:30:06.377Z,96029.66
2023-10-13T06:31:15.997Z,96034.38
2023-10-13T06:32:18.786Z,96035.72
2023-10-13T06:33:30.512Z,96040.53
2023-10-13T06:34:39.628Z,96032.28
2023-10-13T06:35:58.131Z,96037.00
2023-10-13T06:37:00.807Z,96040.97
2023-10-13T06:38:11.528Z,96038.06
2023-10-13T06:39:36.398Z,96036.00
2023-10-13T06:40:41.183Z,96035.56
2023-10-13T06:41:46.379Z,96030.88
2023-10-13T06:42:50.536Z,96042.78
2023-10-13T06:44:06.738Z,96041.66
2023-10-13T06:45:09.955Z,96034.34
2023-10-13T06:46:16.461Z,96035.81
2023-10-13T06:47:22.365Z,96040.72
2023-10-13T06:48:28.930Z,96040.38
2023-10-13T06:49:42.718Z,96033.06
2023-10-13T06:50:57.285Z,96036.94
2023-10-13T06:52:04.377Z,96035.69
2023-10-13T06:53:09.825Z,96032.63
2023-10-13T06:54:20.810Z,96036.59
2023-10-13T06:55:29.355Z,96039.50
2023-10-13T06:56:34.963Z,96039.91
2023-10-13T06:57:44.736Z,96032.34
2023-10-13T06:59:01.684Z,96032.50
2023-10-13T07:00:10.522Z,96030.19
2023-10-13T07:01:16.578Z,96034.78
2023-10-13T07:02:28.788Z,96038.50
2023-10-13T07:03:32.841Z,96036.25
2023-10-13T07:04:46.186Z,96041.03
2023-10-13T07:05:49.173Z,96043.22
2023-10-13T07:06:57.897Z,96039.22
2023-10-13T07:08:03.216Z,96037.94
2023-10-13T07:09:29.750Z,96039.28
2023-10-13T07:10:32.390Z,96031.91
2023-10-13T07:11:41.850Z,96038.34
2023-10-13T07:12:45.260Z,96043.16
2023-10-13T07:13:53.417Z,96042.56
2023-10-13T07:15:01.442Z,96041.25
2023-10-13T07:17:29.349Z,96042.59
2023-10-13T07:18:37.783Z,96042.16
2023-10-13T07:19:54.510Z,96038.00
2023-10-13T07:20:59.646Z,96046.94
2023-10-13T07:22:20.843Z,96043.72
2023-10-13T07:23:28.452Z,96047.53
2023-10-13T07:24:37.008Z,96048.72
2023-10-13T07:25:42.255Z,96049.09
2023-10-13T07:26:48.311Z,96051.00
2023-10-13T07:27:51.090Z,96040.63
2023-10-13T07:28:53.785Z,96047.66
2023-10-13T07:30:15.013Z,96045.38
2023-10-13T07:31:17.813Z,96044.38
2023-10-13T07:32:26.065Z,96046.41
2023-10-13T07:33:28.679Z,96039.00
2023-10-13T07:34:37.442Z,96044.31
2023-10-13T07:35:40.275Z,96042.88
2023-10-13T07:36:45.841Z,96042.53
2023-10-13T07:37:54.110Z,96046.69
2023-10-13T07:39:23.569Z,96043.31
2023-10-13T07:40:41.376Z,96038.88
2023-10-13T07:41:53.273Z,96041.59
2023-10-13T07:43:02.270Z,96039.00
2023-10-13T07:44:08.855Z,96038.84
2023-10-13T07:45:14.555Z,96042.47
2023-10-13T07:46:27.114Z,96040.88
2023-10-13T07:47:34.751Z,96041.72
2023-10-13T07:48:38.710Z,96042.34
2023-10-13T07:49:44.094Z,96042.09
2023-10-13T07:50:47.178Z,96044.63
2023-10-13T07:51:58.632Z,96043.72
2023-10-13T07:53:20.642Z,96040.91
2023-10-13T07:54:26.661Z,96038.22
2023-10-13T07:55:32.348Z,96044.91
2023-10-13T07:56:40.790Z,96035.50
2023-10-13T07:57:56.293Z,96042.44
2023-10-13T07:59:08.853Z,96039.53
2023-10-13T08:00:13.856Z,96035.41
2023-10-13T08:01:22.937Z,96038.44
2023-10-13T08:02:40.746Z,96031.78
2023-10-13T08:03:46.668Z,96037.81
2023-10-13T08:05:01.057Z,96029.50
2023-10-13T08:06:22.125Z,96028.44
2023-10-13T08:07:29.886Z,96027.91
2023-10-13T08:08:43.892Z,96032.00
2023-10-13T08:09:53.169Z,96024.34
2023-10-13T08:11:02.550Z,96028.69
2023-10-13T08:12:23.444Z,96032.03
2023-10-13T08:13:29.740Z,96028.63
2023-10-13T08:14:39.958Z,96032.81
2023-10-13T08:15:48.781Z,96030.13
2023-10-13T08:17:02.856Z,96023.53
2023-10-13T08:18:11.018Z,96027.25
2023-10-13T08:19:19.292Z,96025.25
2023-10-13T08:20:24.041Z,96019.22
2023-10-13T08:21:35.770Z,96023.25
2023-10-13T08:22:40.084Z,96025.25
2023-10-13T08:24:10.982Z,96021.94
2023-10-13T08:25:26.127Z,96012.28
2023-10-13T08:26:54.409Z,96012.59
2023-10-13T08:28:23.684Z,96016.75
2023-10-13T08:29:41.087Z,96013.81
2023-10-13T08:30:58.489Z,96009.91
2023-10-13T08:32:16.808Z,96006.97
2023-10-13T08:33:26.533Z,96010.66
2023-10-13T08:34:31.603Z,96014.06
2023-10-13T08:35:36.849Z,96008.41
2023-10-13T08:36:42.760Z,96008.94
2023-10-13T08:37:52.022Z,96010.88
2023-10-13T08:39:17.304Z,96015.53
2023-10-13T08:40:44.116Z,96008.59
2023-10-13T08:42:00.697Z,96005.59
2023-10-13T08:43:13.601Z,96007.94
2023-10-13T08:44:45.162Z,96003.28
2023-10-13T08:46:09.774Z,96010.50
2023-10-13T08:47:20.554Z,96003.84
2023-10-13T08:48:32.865Z,95999.94
2023-10-13T08:49:54.557Z,96006.53
2023-10-13T08:50:57.391Z,96004.78
2023-10-13T08:52:29.924Z,95998.84
2023-10-13T08:53:53.560Z,96001.53
2023-10-13T08:55:37.416Z,96003.94
2023-10-13T08:56:48.664Z,95994.56
2023-10-13T08:57:55.223Z,95995.22
2023-10-13T08:59:11.362Z,96004.41
2023-10-13T09:00:53.151Z,95998.66
2023-10-13T09:02:01.279Z,95997.03
2023-10-13T09:04:47.336Z,95992.97
2023-10-13T09:06:03.245Z,95994.25
2023-10-13T09:07:16.998Z,95989.81
2023-10-13T09:08:36.786Z,95993.13
2023-10-13T09:10:06.343Z,95992.91
2023-10-13T09:11:15.687Z,95994.34
2023-10-13T09:12:27.295Z,95990.91
2023-10-13T09:13:45.627Z,95992.06
2023-10-13T09:15:06.637Z,95992.78
2023-10-13T09:16:18.951Z,95996.69
2023-10-13T09:17:35.888Z,95988.34
2023-10-13T09:18:48.005Z,95990.94
2023-10-13T09:19:57.358Z,95987.47
2023-10-13T09:21:23.057Z,95982.09
2023-10-13T09:22:29.628Z,95989.31
2023-10-13T09:23:47.196Z,95987.31
2023-10-13T09:24:52.868Z,95981.00
2023-10-13T09:25:59.713Z,95985.09
2023-10-13T09:27:06.546Z,95978.88
2023-10-13T09:28:20.302Z,95988.56
2023-10-13T09:29:23.684Z,95984.72
2023-10-13T09:30:26.374Z,95981.72
2023-10-13T09:31:33.798Z,95986.53
2023-10-13T09:32:47.312Z,95982.91
2023-10-13T09:33:51.891Z,95985.06
2023-10-13T09:34:55.557Z,95979.66
2023-10-13T09:36:01.311Z,95979.47
2023-10-13T09:37:05.475Z,95985.97
2023-10-13T09:38:08.163Z,95986.66
2023-10-13T09:39:31.387Z,95977.66
2023-10-13T09:40:39.873Z,95989.16
2023-10-13T09:41:42.663Z,95985.38
2023-10-13T09:42:49.496Z,95979.06
2023-10-13T09:43:59.663Z,95985.47
2023-10-13T09:45:06.098Z,95986.53
2023-10-13T09:46:17.176Z,95980.03
2023-10-13T09:47:32.423Z,95982.19
2023-10-13T09:48:37.295Z,95972.19
2023-10-13T09:49:50.578Z,95977.44
2023-10-13T09:51:04.358Z,95975.56
2023-10-13T09:52:11.691Z,95981.97
2023-10-13T09:53:15.823Z,95972.56
2023-10-13T09:54:35.047Z,95972.53
2023-10-13T09:55:47.504Z,95976.97
2023-10-13T09:56:53.908Z,95978.03
2023-10-13T09:58:12.173Z,95972.56
2023-10-13T09:59:20.635Z,95975.22
2023-10-13T10:00:46.159Z,95982.59
2023-10-13T10:01:59.299Z,95973.03
2023-10-13T10:03:16.646Z,95973.56
2023-10-13T10:04:21.942Z,95966.31
2023-10-13T10:05:26.760Z,95977.44
2023-10-13T10:06:40.590Z,95974.56
2023-10-13T10:07:45.576Z,95973.91
2023-10-13T10:08:52.257Z,95965.41
2023-10-13T10:09:58.527Z,95959.84
2023-10-13T10:11:32.708Z,95962.47
2023-10-13T10:12:44.811Z,95968.78
2023-10-13T10:13:59.185Z,95970.72
2023-10-13T10:15:15.891Z,95959.03
2023-10-13T10:16:24.346Z,95962.41
2023-10-13T10:17:31.262Z,95955.00
2023-10-13T10:18:37.058Z,95948.44
2023-10-13T10:19:50.001Z,95947.53
2023-10-13T10:20:57.275Z,95960.00
2023-10-13T10:22:28.890Z,95953.50
2023-10-13T10:23:37.800Z,95951.94
2023-10-13T10:24:40.370Z,95947.03
2023-10-13T10:25:47.770Z,95944.56
2023-10-13T10:26:53.517Z,95939.53
2023-10-13T10:28:00.857Z,95949.78
2023-10-13T10:29:16.950Z,95944.97
2023-10-13T10:30:26.268Z,95938.59
2023-10-13T10:31:36.725Z,95944.69
2023-10-13T10:32:42.109Z,95939.31
2023-10-13T10:33:51.532Z,95940.75
2023-10-13T10:35:09.067Z,95930.72
2023-10-13T10:36:16.278Z,95928.53
2023-10-13T10:37:20.322Z,95935.06
2023-10-13T10:38:34.473Z,95929.94
2023-10-13T10:39:46.496Z,95924.97
2023-10-13T10:41:02.439Z,95922.28
2023-10-13T10:42:16.821Z,95925.69
2023-10-13T10:43:32.462Z,95924.50
2023-10-13T10:44:44.581Z,95916.06
2023-10-13T10:46:00.952Z,95900.63
2023-10-13T10:47:21.392Z,95905.47
2023-10-13T10:48:33.036Z,95902.75
2023-10-13T10:49:39.303Z,95901.00
2023-10-13T10:50:45.484Z,95903.16
2023-10-13T10:51:48.414Z,95907.84
2023-10-13T10:52:58.944Z,95910.03
2023-10-13T10:54:12.752Z,95903.19
2023-10-13T10:55:21.471Z,95902.72
2023-10-13T10:56:26.682Z,95895.16
2023-10-13T10:57:38.637Z,95903.78
2023-10-13T10:58:45.957Z,95897.25
2023-10-13T11:00:11.218Z,95890.50
2023-10-13T11:01:20.141Z,95904.66
2023-10-13T11:02:34.819Z,95888.88
2023-10-13T11:03:39.476Z,95887.63
2023-10-13T11:04:52.608Z,95888.69
2023-10-13T11:05:55.274Z,95889.19
2023-10-13T11:07:01.578Z,95877.59
2023-10-13T11:08:33.677Z,95874.59
2023-10-13T11:09:47.536Z,95879.47
2023-10-13T11:10:50.058Z,95882.09
2023-10-13T11:11:54.400Z,95875.25
2023-10-13T11:13:13.058Z,95877.84
2023-10-13T11:14:24.700Z,95867.16
2023-10-13T11:15:35.212Z,95873.94
2023-10-13T11:16:39.421Z,95879.91
2023-10-13T11:17:52.594Z,95871.28
2023-10-13T11:19:02.812Z,95870.06
2023-10-13T11:20:17.812Z,95875.06
2023-10-13T11:21:21.501Z,95866.06
2023-10-13T11:22:43.678Z,95866.75
2023-10-13T11:23:57.266Z,95865.53
2023-10-13T11:25:10.975Z,95858.53
2023-10-13T11:26:13.677Z,95870.25
2023-10-13T11:27:40.591Z,95861.41
2023-10-13T11:28:51.760Z,95857.31
2023-10-13T11:30:06.699Z,95864.28
2023-10-13T11:31:12.584Z,95858.94
2023-10-13T11:32:21.511Z,95852.97
2023-10-13T11:33:25.392Z,95854.38
2023-10-13T11:34:41.540Z,95856.88
2023-10-13T11:35:59.060Z,95858.13
2023-10-13T11:37:24.577Z,95850.06
2023-10-13T11:38:28.985Z,95865.22
2023-10-13T11:39:43.547Z,95851.88
2023-10-13T11:41:01.194Z,95855.81
2023-10-13T11:42:12.342Z,95855.34
2023-10-13T11:43:15.778Z,95846.88
2023-10-13T11:44:25.759Z,95856.84
2023-10-13T11:45:33.015Z,95850.22
2023-10-13T11:46:55.528Z,95857.25
2023-10-13T11:48:02.624Z,95852.13
2023-10-13T11:49:07.564Z,95857.97
2023-10-13T11:50:13.337Z,95844.16
2023-10-13T11:51:18.904Z,95835.91
2023-10-13T11:52:28.079Z,95840.53
2023-10-13T11:53:31.147Z,95836.41
2023-10-13T11:54:36.841Z,95835.50
2023-10-13T11:55:42.395Z,95832.56
2023-10-13T11:56:46.299Z,95839.78
2023-10-13T11:57:52.398Z,95841.28
2023-10-13T11:58:54.862Z,95830.66
2023-10-13T12:00:22.963Z,95822.03
2023-10-13T12:01:45.504Z,95830.03
2023-10-13T12:03:08.621Z,95831.88
2023-10-13T12:04:26.482Z,95823.09
2023-10-13T12:05:50.556Z,95828.94
2023-10-13T12:07:04.546Z,95822.00
2023-10-13T12:08:23.661Z,95826.81
2023-10-13T12:09:43.654Z,95834.56
2023-10-13T12:11:01.705Z,95824.09
2023-10-13T12:12:06.020Z,95820.41
2023-10-13T12:13:12.211Z,95819.53
2023-10-13T12:14:18.457Z,95822.72
2023-10-13T12:16:45.144Z,95802.28
2023-10-13T12:17:57.159Z,95801.78
2023-10-13T12:19:09.872Z,95813.41
2023-10-13T12:20:21.748Z,95802.56
2023-10-13T12:21:42.934Z,95803.41
2023-10-13T12:22:58.903Z,95794.34
2023-10-13T12:24:06.425Z,95799.09
2023-10-13T12:25:26.428Z,95800.97
2023-10-13T12:26:43.539Z,95793.06
2023-10-13T12:27:53.265Z,95790.88
2023-10-13T12:29:18.817Z,95788.22
2023-10-13T12:30:38.433Z,95790.22
2023-10-13T12:31:52.613Z,95786.34
2023-10-13T12:33:12.228Z,95789.00
2023-10-13T12:35:07.872Z,95791.00
2023-10-13T12:36:13.060Z,95781.28
2023-10-13T12:37:48.432Z,95782.25
2023-10-13T12:39:28.369Z,95780.53
2023-10-13T12:40:44.604Z,95779.59
2023-10-13T12:42:03.507Z,95771.75
2023-10-13T12:43:26.980Z,95764.09
2023-10-13T12:44:50.782Z,95772.41
2023-10-13T12:46:10.465Z,95767.59
2023-10-13T12:47:30.242Z,95782.19
2023-10-13T12:49:08.973Z,95772.94
2023-10-13T12:50:38.104Z,95760.50
2023-10-13T12:51:59.173Z,95767.16
2023-10-13T12:53:05.705Z,95760.66
2023-10-13T12:54:24.563Z,95763.13
2023-10-13T12:55:31.541Z,95745.78
2023-10-13T12:56:43.607Z,95753.09
2023-10-13T12:57:50.262Z,95766.09
2023-10-13T12:59:01.264Z,95757.38
2023-10-13T13:00:18.434Z,95773.63
2023-10-13T13:01:30.554Z,95749.94
2023-10-13T13:02:36.426Z,95758.50
2023-10-13T13:03:58.091Z,95742.41
2023-10-13T13:05:08.004Z,95746.16
2023-10-13T13:06:36.771Z,95737.06
2023-10-13T13:07:45.900Z,95743.88
2023-10-13T13:08:52.727Z,95739.75
2023-10-13T13:09:57.784Z,95741.16
2023-10-13T13:11:03.704Z,95749.78
2023-10-13T13:12:08.152Z,95738.69
2023-10-13T13:13:27.735Z,95740.69
2023-10-13T13:14:37.128Z,95745.81
2023-10-13T13:15:50.983Z,95737.63
2023-10-13T13:16:55.327Z,95744.03
2023-10-13T13:18:11.802Z,95734.56
2023-10-13T13:19:30.423Z,95727.34
2023-10-13T13:20:45.114Z,95736.56
2023-10-13T13:21:49.642Z,95727.84
2023-10-13T13:22:55.447Z,95725.78
2023-10-13T13:23:59.154Z,95733.00
2023-10-13T13:25:14.734Z,95729.94
2023-10-13T13:26:20.245Z,95729.03
2023-10-13T13:27:34.405Z,95730.22
2023-10-13T13:28:43.922Z,95718.31
2023-10-13T13:29:49.920Z,95731.16
2023-10-13T13:30:56.211Z,95721.41
2023-10-13T13:32:07.848Z,95717.31
2023-10-13T13:33:17.327Z,95715.78
2023-10-13T13:34:26.021Z,95715.28
2023-10-13T13:35:43.331Z,95715.53
2023-10-13T13:36:56.913Z,95702.19
2023-10-13T13:38:29.777Z,95712.78
2023-10-13T13:39:37.035Z,95708.59
2023-10-13T13:40:44.853Z,95696.91
2023-10-13T13:41:53.793Z,95703.47
2023-10-13T13:43:06.872Z,95690.09
2023-10-13T13:44:20.423Z,95701.53
2023-10-13T13:45:36.620Z,95696.91
2023-10-13T13:46:46.536Z,95699.34
2023-10-13T13:47:57.997Z,95699.84
2023-10-13T13:49:09.311Z,95690.50
2023-10-13T13:50:23.151Z,95693.34
2023-10-13T13:51:36.601Z,95691.25
2023-10-13T13:53:35.786Z,95689.16
2023-10-13T13:54:20.099Z,95683.75
2023-10-13T13:55:23.756Z,95677.84
2023-10-13T13:56:40.335Z,95679.59
2023-10-13T13:57:47.935Z,95675.38
2023-10-13T13:59:15.059Z,95673.88
2023-10-13T14:00:27.371Z,95674.19
2023-10-13T14:01:43.624Z,95668.75
2023-10-13T14:04:34.769Z,95667.03
2023-10-13T14:06:19.876Z,95666.53
2023-10-13T14:07:30.255Z,95664.97
2023-10-13T14:08:40.822Z,95652.19
2023-10-13T14:10:07.561Z,95658.69
2023-10-13T14:11:42.176Z,95656.34
2023-10-13T14:12:52.082Z,95649.59